Time;durP1;ratioP1;P1;durP2;ratioP2;P2;SDS_P1;SDS_P2;PMS_P1;PMS_P2;Temp;Humidity;BMP_temperature;BMP_pressure;BME280_temperature;BME280_humidity;BME280_pressure;Samples;Min_cycle;Max_cycle;Signal;HPM_P1;HPM_P2
2023/06/28 00:02:22;;;;;;;6.35;3.80;;;14.40;99.90;;;;;;4937117;28;93265;-36
2023/06/28 00:04:48;;;;;;;6.00;3.80;;;14.40;99.90;;;;;;4941182;28;91495;-32
2023/06/28 00:07:15;;;;;;;3.58;3.22;;;14.40;99.90;;;;;;4944969;28;94748;-35
2023/06/28 00:09:41;;;;;;;9.30;4.28;;;14.40;99.90;;;;;;4937321;28;94510;-33
2023/06/28 00:12:07;;;;;;;6.68;4.47;;;14.40;99.90;;;;;;4936964;28;96138;-34
2023/06/28 00:14:33;;;;;;;6.80;4.07;;;14.50;99.90;;;;;;4941314;28;92521;-35
2023/06/28 00:16:59;;;;;;;7.40;4.00;;;14.50;99.90;;;;;;4955713;28;94605;-34
2023/06/28 00:19:28;;;;;;;6.03;4.00;;;14.40;99.90;;;;;;4954346;28;94226;-35
2023/06/28 00:21:55;;;;;;;7.72;4.78;;;14.40;99.90;;;;;;4945338;28;93499;-33
2023/06/28 00:24:21;;;;;;;6.30;4.35;;;14.40;99.90;;;;;;4919599;28;93186;-36
2023/06/28 00:26:46;;;;;;;8.10;4.10;;;14.40;99.90;;;;;;4947586;28;94866;-35
2023/06/28 00:29:12;;;;;;;4.53;3.33;;;14.40;99.90;;;;;;4937970;28;94359;-34
2023/06/28 00:31:38;;;;;;;5.80;3.30;;;14.30;99.90;;;;;;4948824;28;92110;-33
2023/06/28 00:34:04;;;;;;;4.93;3.83;;;14.30;99.90;;;;;;4955605;28;93274;-33
2023/06/28 00:36:29;;;;;;;7.88;4.35;;;14.30;99.90;;;;;;4943392;28;95335;-34
2023/06/28 00:38:55;;;;;;;8.02;4.47;;;14.30;99.90;;;;;;4941024;28;95307;-33
2023/06/28 00:41:20;;;;;;;5.05;4.22;;;14.30;99.90;;;;;;4955924;28;93993;-36
2023/06/28 00:43:46;;;;;;;6.45;4.43;;;14.30;99.90;;;;;;4950539;28;93561;-33
2023/06/28 00:46:12;;;;;;;6.05;4.15;;;14.30;99.90;;;;;;4936948;28;94824;-38
2023/06/28 00:48:38;;;;;;;5.85;4.15;;;14.30;99.90;;;;;;4936184;28;94590;-36
2023/06/28 00:51:04;;;;;;;8.82;4.60;;;14.30;99.90;;;;;;4947832;28;94824;-36
2023/06/28 00:53:30;;;;;;;8.73;4.72;;;14.30;99.90;;;;;;4956243;28;93460;-37
2023/06/28 00:55:57;;;;;;;5.97;3.65;;;14.30;99.90;;;;;;4944011;28;94585;-37
2023/06/28 00:58:28;;;;;;;12.40;4.43;;;14.20;99.90;;;;;;4935812;28;94529;-35
2023/06/28 01:00:53;;;;;;;11.45;5.95;;;14.20;99.90;;;;;;4935808;28;95753;-37
2023/06/28 01:03:20;;;;;;;5.50;4.50;;;14.20;99.90;;;;;;4949302;28;94696;-35
2023/06/28 01:05:49;;;;;;;7.00;4.25;;;14.20;99.90;;;;;;4950472;28;93864;-34
2023/06/28 01:08:16;;;;;;;9.68;4.68;;;14.20;99.90;;;;;;4945720;28;94609;-34
2023/06/28 01:10:43;;;;;;;10.80;5.30;;;14.20;99.90;;;;;;4958904;28;92492;-34
2023/06/28 01:13:09;;;;;;;8.63;4.03;;;14.10;99.90;;;;;;4927668;28;92657;-36
2023/06/28 01:15:35;;;;;;;9.38;4.95;;;14.10;99.90;;;;;;4952061;28;93667;-35
2023/06/28 01:18:01;;;;;;;10.10;4.97;;;14.10;99.90;;;;;;4958745;28;94816;-36
2023/06/28 01:20:30;;;;;;;9.23;4.95;;;14.10;99.90;;;;;;4957579;28;92244;-36
2023/06/28 01:22:56;;;;;;;;;;;14.00;99.90;;;;;;4947816;28;92774;-34
2023/06/28 01:25:22;;;;;;;6.35;5.10;;;14.00;99.90;;;;;;4957380;28;96039;-36
2023/06/28 01:27:48;;;;;;;8.85;4.60;;;14.00;99.90;;;;;;4939635;28;95178;-34
2023/06/28 01:30:15;;;;;;;8.57;4.45;;;14.00;99.90;;;;;;4951938;28;94741;-35
2023/06/28 01:32:42;;;;;;;7.50;5.28;;;14.00;99.90;;;;;;4957930;28;93383;-33
2023/06/28 01:35:08;;;;;;;10.17;5.43;;;14.10;99.90;;;;;;4956537;28;94767;-35
2023/06/28 01:37:34;;;;;;;6.95;4.55;;;14.00;99.90;;;;;;4939321;28;94157;-33
2023/06/28 01:40:02;;;;;;;7.32;4.22;;;14.00;99.90;;;;;;4951925;28;93091;-32
2023/06/28 01:42:28;;;;;;;7.17;4.67;;;14.00;99.90;;;;;;4939567;28;92761;-35
2023/06/28 01:44:53;;;;;;;9.05;4.30;;;14.00;99.90;;;;;;4939570;28;96532;-34
2023/06/28 01:47:20;;;;;;;11.05;5.03;;;14.00;99.90;;;;;;4946540;28;95087;-33
2023/06/28 01:49:45;;;;;;;4.80;4.25;;;14.00;99.90;;;;;;4956892;28;95645;-38
2023/06/28 01:52:11;;;;;;;10.32;5.32;;;14.00;99.90;;;;;;4945462;28;92242;-36
2023/06/28 01:54:37;;;;;;;6.22;4.90;;;14.00;99.90;;;;;;4944101;28;94258;-35
2023/06/28 01:57:03;;;;;;;11.73;5.97;;;14.00;99.90;;;;;;4939597;28;96120;-33
2023/06/28 01:59:30;;;;;;;7.03;5.47;;;13.90;99.90;;;;;;4938839;28;93129;-33
2023/06/28 02:01:57;;;;;;;7.33;4.80;;;13.90;99.90;;;;;;4939245;28;94378;-37
2023/06/28 02:04:23;;;;;;;8.48;4.88;;;13.90;99.90;;;;;;4939363;28;94712;-34
2023/06/28 02:06:49;;;;;;;10.95;6.25;;;13.90;99.90;;;;;;4939724;28;95046;-31
2023/06/28 02:09:14;;;;;;;7.50;4.63;;;13.90;99.90;;;;;;4939206;28;94180;-36
2023/06/28 02:11:40;;;;;;;8.10;4.97;;;13.90;99.90;;;;;;4938383;28;94130;-36
2023/06/28 02:14:06;;;;;;;8.55;6.30;;;13.90;99.90;;;;;;4938121;28;95363;-36
2023/06/28 02:16:31;;;;;;;15.95;6.95;;;13.80;99.90;;;;;;4938770;28;95574;-34
2023/06/28 02:18:59;;;;;;;12.05;5.45;;;13.80;99.90;;;;;;4938411;28;93569;-34
2023/06/28 02:21:25;;;;;;;9.67;5.53;;;13.80;99.90;;;;;;4939202;28;93300;-33
2023/06/28 02:23:50;;;;;;;11.82;5.32;;;13.80;99.90;;;;;;4938186;28;95679;-34
2023/06/28 02:26:16;;;;;;;9.38;5.20;;;13.80;99.90;;;;;;4938237;28;94647;-37
2023/06/28 02:28:41;;;;;;;10.13;5.75;;;13.80;99.90;;;;;;4939444;28;94076;-37
2023/06/28 02:31:07;;;;;;;10.00;6.47;;;13.80;99.90;;;;;;4938675;28;93562;-36
2023/06/28 02:33:33;;;;;;;14.45;6.13;;;13.80;99.90;;;;;;4939369;28;93627;-33
2023/06/28 02:35:59;;;;;;;7.40;5.53;;;13.60;99.90;;;;;;4937502;28;94228;-33
2023/06/28 02:38:24;;;;;;;12.75;5.85;;;13.70;99.90;;;;;;4937398;28;95205;-33
2023/06/28 02:40:51;;;;;;;7.95;5.53;;;13.70;99.90;;;;;;4939098;28;92291;-34
2023/06/28 02:43:16;;;;;;;6.70;5.53;;;13.70;99.90;;;;;;4937598;28;93862;-32
2023/06/28 02:45:42;;;;;;;8.35;6.85;;;13.70;99.90;;;;;;4938356;28;94203;-33
2023/06/28 02:48:08;;;;;;;8.40;6.40;;;13.70;99.90;;;;;;4938022;28;94644;-34
2023/06/28 02:50:33;;;;;;;7.30;5.60;;;13.80;99.90;;;;;;4938692;28;94256;-38
2023/06/28 02:52:59;;;;;;;7.53;6.05;;;13.80;99.90;;;;;;4937744;28;94688;-35
2023/06/28 02:55:25;;;;;;;8.55;5.88;;;13.80;99.90;;;;;;4938160;28;94499;-37
2023/06/28 02:57:50;;;;;;;10.52;5.70;;;13.70;99.90;;;;;;4938524;28;94275;-35
2023/06/28 03:00:16;;;;;;;10.23;5.95;;;13.70;99.90;;;;;;4938162;28;93577;-35
2023/06/28 03:02:42;;;;;;;9.25;6.43;;;13.80;99.90;;;;;;4937504;28;95926;-34
2023/06/28 03:05:08;;;;;;;7.72;6.65;;;13.80;99.90;;;;;;4937993;28;95974;-33
2023/06/28 03:07:33;;;;;;;8.43;4.97;;;13.80;99.90;;;;;;4938259;28;92954;-35
2023/06/28 03:09:59;;;;;;;9.73;6.05;;;13.80;99.90;;;;;;4937793;28;94709;-34
2023/06/28 03:12:24;;;;;;;6.43;5.68;;;13.80;99.90;;;;;;4936762;28;95597;-33
2023/06/28 03:14:50;;;;;;;10.00;6.00;;;13.80;99.90;;;;;;4938269;28;94532;-34
2023/06/28 03:17:19;;;;;;;11.35;6.80;;;13.70;99.90;;;;;;4937909;28;93181;-33
2023/06/28 03:19:45;;;;;;;7.78;6.68;;;13.70;99.90;;;;;;4937846;28;92772;-31
2023/06/28 03:22:11;;;;;;;8.50;6.20;;;13.80;99.90;;;;;;4937462;28;94565;-35
2023/06/28 03:24:37;;;;;;;6.90;6.28;;;13.80;99.90;;;;;;4937472;28;96285;-34
2023/06/28 03:27:03;;;;;;;13.13;7.20;;;13.80;99.90;;;;;;4937479;28;94944;-38
2023/06/28 03:29:29;;;;;;;9.60;5.55;;;13.80;99.90;;;;;;4937281;28;94311;-33
2023/06/28 03:31:55;;;;;;;8.65;6.55;;;13.80;99.90;;;;;;4937002;28;94752;-36
2023/06/28 03:34:20;;;;;;;9.00;7.00;;;13.90;99.90;;;;;;4937799;28;94019;-34
2023/06/28 03:36:47;;;;;;;7.53;5.50;;;13.90;99.90;;;;;;4936439;28;93827;-33
2023/06/28 03:39:13;;;;;;;17.45;7.57;;;13.90;99.90;;;;;;4936685;28;92633;-33
2023/06/28 03:41:39;;;;;;;13.05;7.40;;;13.90;99.90;;;;;;4936311;28;94966;-34
2023/06/28 03:44:05;;;;;;;8.90;6.18;;;13.90;99.90;;;;;;4935747;28;94542;-36
2023/06/28 03:46:31;;;;;;;9.32;6.35;;;13.90;99.90;;;;;;4935090;28;93985;-34
2023/06/28 03:48:56;;;;;;;12.25;7.20;;;13.90;99.90;;;;;;4919642;28;94061;-32
2023/06/28 03:51:22;;;;;;;14.15;7.90;;;13.80;99.90;;;;;;4934250;28;95845;-35
2023/06/28 03:53:48;;;;;;;9.50;7.53;;;13.80;99.90;;;;;;4936696;28;95981;-35
2023/06/28 03:56:14;;;;;;;12.95;7.47;;;13.80;99.90;;;;;;4934308;28;93050;-38
2023/06/28 03:58:40;;;;;;;8.70;7.10;;;13.80;99.90;;;;;;4925037;28;94037;-35
2023/06/28 04:01:06;;;;;;;8.70;6.80;;;13.80;99.90;;;;;;4936545;28;94957;-36
2023/06/28 04:03:32;;;;;;;16.23;6.95;;;13.90;99.90;;;;;;4936137;28;94511;-32
2023/06/28 04:05:57;;;;;;;11.05;7.03;;;13.90;99.90;;;;;;4935732;28;92856;-33
2023/06/28 04:08:26;;;;;;;9.80;7.72;;;13.90;99.90;;;;;;4936181;28;93871;-34
2023/06/28 04:10:53;;;;;;;10.77;7.32;;;14.00;99.90;;;;;;4936463;28;93994;-34
2023/06/28 04:13:19;;;;;;;12.23;7.70;;;14.00;99.90;;;;;;4918661;28;95899;-36
2023/06/28 04:15:45;;;;;;;9.80;7.75;;;14.00;99.90;;;;;;4917923;28;94480;-35
2023/06/28 04:18:10;;;;;;;10.00;6.53;;;14.00;99.90;;;;;;4918030;28;92905;-36
2023/06/28 04:20:36;;;;;;;9.77;6.75;;;14.10;99.90;;;;;;4936666;28;94795;-37
2023/06/28 04:23:01;;;;;;;7.70;6.75;;;14.10;99.90;;;;;;4927409;28;94735;-37
2023/06/28 04:25:27;;;;;;;12.25;7.85;;;14.10;99.90;;;;;;4917849;28;93455;-35
2023/06/28 04:27:53;;;;;;;7.72;6.93;;;14.20;99.90;;;;;;4930370;28;93217;-36
2023/06/28 04:30:18;;;;;;;8.90;7.47;;;14.20;99.90;;;;;;4916483;28;94634;-36
2023/06/28 04:32:45;;;;;;;13.13;7.75;;;14.20;99.90;;;;;;4923399;28;93203;-34
2023/06/28 04:35:14;;;;;;;11.50;9.10;;;14.20;99.90;;;;;;4922181;28;93678;-34
2023/06/28 04:37:40;;;;;;;9.80;7.20;;;14.20;99.90;;;;;;5014711;22;93393;-34
2023/06/28 04:40:07;;;;;;;10.50;7.30;;;14.20;99.90;;;;;;5015881;27;95792;-35
2023/06/28 04:42:34;;;;;;;9.48;8.18;;;14.20;99.90;;;;;;5019605;28;94954;-34
2023/06/28 04:45:00;;;;;;;10.30;6.97;;;14.20;99.90;;;;;;5020264;28;93292;-36
2023/06/28 04:47:27;;;;;;;9.85;8.15;;;14.20;99.90;;;;;;5019853;28;94030;-35
2023/06/28 04:49:54;;;;;;;12.20;7.22;;;14.30;99.90;;;;;;5018682;28;94780;-34
2023/06/28 04:52:21;;;;;;;13.15;9.23;;;14.30;99.90;;;;;;5018493;28;94476;-35
2023/06/28 04:54:47;;;;;;;11.48;8.10;;;14.30;99.90;;;;;;5020146;28;92175;-34
2023/06/28 04:57:15;;;;;;;10.82;8.18;;;14.40;99.90;;;;;;5018467;28;92084;-38
2023/06/28 04:59:41;;;;;;;9.33;7.20;;;14.40;99.90;;;;;;5018701;28;94181;-33
2023/06/28 05:02:07;;;;;;;8.93;6.78;;;14.40;99.90;;;;;;5018756;28;94521;-37
2023/06/28 05:04:33;;;;;;;9.98;7.95;;;14.50;99.90;;;;;;5019027;28;93170;-35
2023/06/28 05:07:05;;;;;;;9.98;6.95;;;14.50;99.90;;;;;;5019135;28;95034;-34
2023/06/28 05:09:32;;;;;;;12.90;8.75;;;14.50;99.90;;;;;;5019235;28;94911;-33
2023/06/28 05:11:59;;;;;;;11.38;7.63;;;14.50;99.90;;;;;;5018565;28;94785;-34
2023/06/28 05:14:25;;;;;;;12.13;7.63;;;14.50;99.90;;;;;;5020916;27;93822;-33
2023/06/28 05:16:52;;;;;;;12.43;7.95;;;14.60;99.90;;;;;;5026514;27;94178;-33
2023/06/28 05:19:18;;;;;;;13.77;8.70;;;14.60;99.90;;;;;;5018582;28;94793;-36
2023/06/28 05:21:44;;;;;;;8.85;6.60;;;14.60;99.90;;;;;;5019897;28;94249;-35
2023/06/28 05:24:09;;;;;;;11.23;7.88;;;14.70;99.90;;;;;;5007934;27;93011;-33
2023/06/28 05:26:35;;;;;;;9.95;8.00;;;14.70;99.90;;;;;;5016143;28;92496;-34
2023/06/28 05:29:01;;;;;;;9.60;7.10;;;14.70;99.90;;;;;;5015825;28;95566;-35
2023/06/28 05:31:26;;;;;;;11.65;7.25;;;14.70;99.90;;;;;;5015328;28;96332;-36
2023/06/28 05:33:52;;;;;;;15.55;8.20;;;14.80;99.90;;;;;;5017230;28;93739;-34
2023/06/28 05:36:22;;;;;;;9.85;6.07;;;14.70;99.90;;;;;;5003355;28;93574;-37
2023/06/28 05:38:48;;;;;;;7.75;6.53;;;14.80;99.90;;;;;;5016067;28;94538;-34
2023/06/28 05:41:16;;;;;;;9.90;7.65;;;14.80;99.90;;;;;;5015941;28;94124;-37
2023/06/28 05:43:44;;;;;;;8.95;7.28;;;14.90;99.90;;;;;;5017014;28;93098;-35
2023/06/28 05:46:11;;;;;;;8.43;6.82;;;14.90;99.90;;;;;;5017361;28;92819;-37
2023/06/28 05:48:36;;;;;;;8.43;5.95;;;14.90;99.90;;;;;;5016394;28;94973;-35
2023/06/28 05:51:02;;;;;;;6.55;5.00;;;14.90;99.90;;;;;;5015976;28;95017;-39
2023/06/28 05:53:29;;;;;;;11.02;5.88;;;14.90;99.90;;;;;;5015412;28;93256;-35
2023/06/28 05:55:55;;;;;;;5.50;4.82;;;14.90;99.90;;;;;;5016928;28;94977;-36
2023/06/28 05:58:21;;;;;;;8.18;5.15;;;14.90;99.90;;;;;;5016058;28;94520;-39
2023/06/28 06:00:46;;;;;;;5.90;4.75;;;15.00;99.90;;;;;;5016248;28;93538;-36
2023/06/28 06:03:12;;;;;;;7.50;5.55;;;15.00;99.90;;;;;;5015487;28;92355;-36
2023/06/28 06:05:38;;;;;;;7.10;5.57;;;15.10;99.90;;;;;;5016292;28;92311;-37
2023/06/28 06:08:05;;;;;;;6.55;4.75;;;15.10;99.90;;;;;;5015165;28;95737;-38
2023/06/28 06:10:31;;;;;;;9.45;5.82;;;15.20;99.90;;;;;;5016121;28;95190;-36
2023/06/28 06:12:56;;;;;;;6.32;5.00;;;15.30;99.90;;;;;;5016420;28;93519;-35
2023/06/28 06:15:22;;;;;;;5.90;5.30;;;15.20;99.90;;;;;;5015468;28;95172;-34
2023/06/28 06:17:49;;;;;;;6.85;4.53;;;15.30;99.90;;;;;;5014903;28;96043;-33
2023/06/28 06:20:15;;;;;;;8.95;4.75;;;15.40;99.90;;;;;;5016165;28;95318;-35
2023/06/28 06:22:42;;;;;;;5.95;4.53;;;15.40;99.90;;;;;;5016166;28;94066;-38
2023/06/28 06:25:08;;;;;;;10.07;4.60;;;15.50;99.90;;;;;;5016067;28;94300;-35
2023/06/28 06:27:33;;;;;;;10.55;5.82;;;15.50;99.90;;;;;;5015088;28;95059;-38
2023/06/28 06:29:59;;;;;;;7.05;4.05;;;15.50;99.90;;;;;;5015986;28;94428;-37
2023/06/28 06:32:25;;;;;;;4.50;4.03;;;15.60;99.90;;;;;;5016254;28;94054;-34
2023/06/28 06:34:50;;;;;;;12.93;4.00;;;15.60;99.90;;;;;;5015688;28;92349;-35
2023/06/28 06:37:16;;;;;;;6.88;4.85;;;15.70;99.90;;;;;;5015066;28;94864;-37
2023/06/28 06:39:42;;;;;;;8.35;4.93;;;15.70;99.90;;;;;;5015637;28;94538;-39
2023/06/28 06:42:08;;;;;;;6.70;4.90;;;15.70;99.90;;;;;;5015005;28;94324;-35
2023/06/28 06:44:34;;;;;;;5.57;4.57;;;15.80;99.90;;;;;;5005804;28;92912;-39
2023/06/28 06:46:59;;;;;;;8.93;3.97;;;15.90;99.90;;;;;;5015009;28;94085;-37
2023/06/28 06:49:25;;;;;;;8.30;5.55;;;15.90;99.90;;;;;;5015902;28;94932;-34
2023/06/28 06:51:51;;;;;;;8.68;5.50;;;15.90;99.90;;;;;;5015656;28;95033;-34
2023/06/28 06:54:16;;;;;;;8.27;4.82;;;15.90;99.90;;;;;;5015338;28;92956;-36
2023/06/28 06:56:42;;;;;;;5.82;4.40;;;16.00;99.90;;;;;;5015074;28;94756;-38
2023/06/28 06:59:07;;;;;;;7.15;5.55;;;16.10;99.90;;;;;;5013971;28;94424;-39
2023/06/28 07:01:34;;;;;;;9.65;5.35;;;16.10;99.90;;;;;;5015167;28;94693;-35
2023/06/28 07:04:00;;;;;;;7.35;5.03;;;16.10;99.90;;;;;;5014724;27;94036;-36
2023/06/28 07:06:26;;;;;;;8.90;5.28;;;16.20;99.90;;;;;;5015194;28;95514;-36
2023/06/28 07:08:51;;;;;;;10.48;5.53;;;16.30;99.90;;;;;;5014354;28;95102;-36
2023/06/28 07:11:17;;;;;;;6.43;5.82;;;16.30;99.90;;;;;;5014914;28;92806;-39
2023/06/28 07:13:43;;;;;;;8.90;5.18;;;16.30;99.90;;;;;;5014573;28;93301;-35
2023/06/28 07:16:08;;;;;;;9.25;7.03;;;16.30;99.90;;;;;;5014573;28;94783;-35
2023/06/28 07:18:34;;;;;;;8.98;5.90;;;16.40;99.90;;;;;;5015178;28;94563;-37
2023/06/28 07:20:59;;;;;;;15.10;6.43;;;16.40;99.90;;;;;;5014208;28;93529;-37
2023/06/28 07:23:25;;;;;;;5.97;5.35;;;16.50;99.90;;;;;;5006690;28;92291;-37
2023/06/28 07:25:51;;;;;;;10.07;5.75;;;16.50;99.90;;;;;;5014185;28;96170;-37
2023/06/28 07:28:17;;;;;;;11.32;6.75;;;16.40;99.90;;;;;;5014560;28;94306;-34
2023/06/28 07:30:54;;;;;;;9.05;6.68;;;16.40;99.90;;;;;;5013388;28;93969;-35
2023/06/28 07:33:22;;;;;;;9.95;6.85;;;16.30;99.90;;;;;;5014522;28;94938;-35
2023/06/28 07:35:48;;;;;;;7.60;6.40;;;16.30;99.90;;;;;;5012284;28;94457;-37
2023/06/28 07:38:16;;;;;;;14.38;6.50;;;16.30;99.90;;;;;;5014066;28;94486;-34
2023/06/28 07:40:42;;;;;;;9.85;6.18;;;16.30;99.90;;;;;;5013506;28;92490;-36
2023/06/28 07:43:07;;;;;;;7.80;6.25;;;16.30;99.90;;;;;;5014046;28;92657;-38
2023/06/28 07:45:33;;;;;;;8.90;5.75;;;16.30;99.90;;;;;;5014511;28;95059;-34
2023/06/28 07:47:59;;;;;;;11.10;6.30;;;16.20;99.90;;;;;;5013423;28;94424;-34
2023/06/28 07:50:25;;;;;;;14.85;5.90;;;16.30;99.90;;;;;;5013923;28;92567;-39
2023/06/28 07:52:51;;;;;;;13.18;7.88;;;16.30;99.90;;;;;;5014976;28;94466;-34
2023/06/28 07:55:16;;;;;;;11.80;7.15;;;16.20;99.90;;;;;;5013269;28;95588;-34
2023/06/28 07:57:42;;;;;;;12.13;6.93;;;16.20;99.90;;;;;;5014851;28;95434;-39
2023/06/28 08:00:10;;;;;;;7.63;6.75;;;16.20;99.90;;;;;;5013770;28;93520;-38
2023/06/28 08:02:35;;;;;;;9.57;7.45;;;16.20;99.90;;;;;;5014296;28;94364;-35
2023/06/28 08:05:01;;;;;;;11.68;7.57;;;16.20;99.90;;;;;;5014486;28;95537;-34
2023/06/28 08:07:27;;;;;;;11.95;8.13;;;16.20;99.90;;;;;;5013292;28;94110;-37
2023/06/28 08:09:52;;;;;;;13.75;7.45;;;16.30;99.90;;;;;;5014212;28;93985;-38
2023/06/28 08:12:18;;;;;;;12.38;8.50;;;16.40;99.90;;;;;;5013384;28;93193;-35
2023/06/28 08:14:43;;;;;;;11.90;8.25;;;16.40;99.90;;;;;;5013063;28;95095;-40
2023/06/28 08:17:09;;;;;;;11.32;8.35;;;16.50;99.90;;;;;;5014493;28;93493;-37
2023/06/28 08:19:35;;;;;;;12.90;9.77;;;16.30;99.90;;;;;;5012600;28;94051;-36
2023/06/28 08:22:03;;;;;;;10.35;8.68;;;16.20;99.90;;;;;;5014025;28;94418;-37
2023/06/28 08:24:29;;;;;;;13.43;7.88;;;16.20;99.90;;;;;;5013485;28;93982;-36
2023/06/28 08:26:55;;;;;;;13.27;8.88;;;16.30;99.90;;;;;;5013562;28;94524;-36
2023/06/28 08:29:22;;;;;;;13.27;9.10;;;16.30;99.90;;;;;;5014444;28;94139;-36
2023/06/28 08:31:47;;;;;;;13.13;9.18;;;16.30;99.90;;;;;;5012336;28;93061;-37
2023/06/28 08:34:13;;;;;;;11.45;8.68;;;16.40;99.90;;;;;;5012628;28;94535;-36
2023/06/28 08:36:39;;;;;;;10.88;7.82;;;16.50;99.90;;;;;;5013861;28;95601;-35
2023/06/28 08:39:04;;;;;;;11.32;9.60;;;16.70;99.90;;;;;;5013980;28;92554;-35
2023/06/28 08:41:30;;;;;;;14.50;8.88;;;16.90;99.90;;;;;;5014197;28;93168;-37
2023/06/28 08:44:01;;;;;;;12.25;9.93;;;16.80;99.90;;;;;;5012847;28;95293;-36
2023/06/28 08:46:29;;;;;;;14.50;9.75;;;16.80;99.90;;;;;;5013369;28;95122;-37
2023/06/28 08:48:55;;;;;;;11.88;8.35;;;16.90;99.90;;;;;;5013117;28;94042;-38
2023/06/28 08:51:21;;;;;;;15.20;7.70;;;17.00;99.90;;;;;;5013268;28;94351;-41
2023/06/28 08:53:48;;;;;;;13.45;8.63;;;17.00;99.90;;;;;;5013876;28;95150;-36
2023/06/28 08:56:18;;;;;;;9.30;8.27;;;16.90;99.90;;;;;;5012688;28;94817;-38
2023/06/28 08:58:47;;;;;;;10.57;7.80;;;16.90;99.90;;;;;;5013826;28;94677;-38
2023/06/28 09:01:13;;;;;;;14.50;8.95;;;16.70;99.90;;;;;;5013156;28;92731;-34
2023/06/28 09:03:42;;;;;;;13.13;8.45;;;16.80;99.90;;;;;;5013550;28;94179;-39
2023/06/28 09:06:09;;;;;;;13.98;9.13;;;16.90;99.90;;;;;;5012915;28;94818;-37
2023/06/28 09:08:35;;;;;;;16.25;9.73;;;17.00;99.90;;;;;;5013049;28;94733;-35
2023/06/28 09:11:02;;;;;;;14.38;7.93;;;17.00;99.90;;;;;;5012598;28;93144;-37
2023/06/28 09:13:28;;;;;;;11.65;8.07;;;17.00;99.90;;;;;;5012982;28;94833;-38
2023/06/28 09:15:54;;;;;;;11.88;9.05;;;17.10;99.90;;;;;;5013614;28;95293;-34
2023/06/28 09:18:20;;;;;;;19.65;8.73;;;17.00;99.90;;;;;;5012756;28;93982;-38
2023/06/28 09:20:51;;;;;;;15.60;8.90;;;17.00;99.90;;;;;;5013399;28;93078;-36
2023/06/28 09:23:30;;;;;;;12.88;11.20;;;17.00;99.90;;;;;;5012974;28;94148;-39
2023/06/28 09:25:56;;;;;;;11.30;8.85;;;17.00;99.90;;;;;;5012463;27;94456;-35
2023/06/28 09:28:30;;;;;;;15.05;9.30;;;17.10;99.90;;;;;;5015633;28;92190;-37
2023/06/28 09:30:56;;;;;;;10.90;9.13;;;17.00;99.90;;;;;;5016438;28;93785;-38
2023/06/28 09:33:23;;;;;;;13.35;9.75;;;17.10;99.90;;;;;;5018030;27;95125;-34
2023/06/28 09:36:09;;;;;;;16.40;10.85;;;17.00;99.90;;;;;;5016007;28;98829;-38
2023/06/28 09:38:42;;;;;;;11.43;10.23;;;17.10;99.90;;;;;;4995613;28;93522;-35
2023/06/28 09:41:07;;;;;;;15.70;11.00;;;17.10;99.90;;;;;;4996108;28;94673;-35
2023/06/28 09:43:34;;;;;;;10.18;9.18;;;17.10;99.90;;;;;;4994809;28;94701;-37
2023/06/28 09:46:17;;;;;;;11.55;9.23;;;17.20;99.90;;;;;;4996603;28;94096;-34
2023/06/28 09:48:44;;;;;;;13.77;9.73;;;17.20;99.90;;;;;;5010525;28;94034;-36
2023/06/28 09:51:11;;;;;;;11.97;10.53;;;17.30;99.90;;;;;;5014981;28;93845;-36
2023/06/28 09:53:53;;;;;;;12.33;10.83;;;17.30;99.90;;;;;;4990752;28;94817;-33
2023/06/28 09:56:20;;;;;;;15.48;12.68;;;17.20;99.90;;;;;;5002840;28;94351;-34
2023/06/28 09:58:49;;;;;;;15.73;11.98;;;17.20;99.90;;;;;;5005608;28;96724;-31
2023/06/28 10:01:15;;;;;;;15.43;10.73;;;17.20;99.90;;;;;;4995733;28;94721;-35
2023/06/28 10:03:44;;;;;;;15.20;11.57;;;17.20;99.90;;;;;;4993675;28;94952;-37
2023/06/28 10:06:10;;;;;;;;;;;17.30;99.90;;;;;;4995811;28;94774;-34
2023/06/28 10:08:36;;;;;;;17.08;11.77;;;17.20;99.90;;;;;;4997416;28;92672;-34
2023/06/28 10:11:08;;;;;;;16.48;12.55;;;17.30;99.90;;;;;;4995250;28;93180;-35
2023/06/28 10:13:34;;;;;;;14.05;12.52;;;17.30;99.90;;;;;;4982711;28;94306;-33
2023/06/28 10:16:09;;;;;;;14.35;12.90;;;17.30;99.90;;;;;;5007193;28;95777;-32
2023/06/28 10:18:34;;;;;;;18.98;12.38;;;17.40;99.90;;;;;;4995622;28;94526;-37
2023/06/28 10:21:01;;;;;;;17.25;12.30;;;17.20;99.90;;;;;;4994645;28;93133;-31
2023/06/28 10:23:26;;;;;;;16.17;13.85;;;17.20;99.90;;;;;;5003128;28;97012;-33
2023/06/28 10:25:54;;;;;;;18.17;13.18;;;17.30;99.90;;;;;;5000712;28;95148;-34
2023/06/28 10:28:20;;;;;;;19.23;15.05;;;17.30;99.90;;;;;;4987610;28;93534;-34
2023/06/28 10:30:47;;;;;;;19.35;14.48;;;17.30;99.90;;;;;;4994080;28;94004;-37
2023/06/28 10:33:15;;;;;;;19.35;13.88;;;17.30;99.90;;;;;;4994894;28;96066;-34
2023/06/28 10:35:43;;;;;;;22.02;14.32;;;17.50;99.90;;;;;;4994936;28;94894;-35
2023/06/28 10:38:09;;;;;;;22.13;13.93;;;17.60;99.90;;;;;;5012497;27;94914;-35
2023/06/28 10:40:35;;;;;;;18.52;13.52;;;17.60;99.90;;;;;;5015180;28;94250;-35
2023/06/28 10:43:01;;;;;;;20.83;15.80;;;17.60;99.90;;;;;;5015277;28;94666;-34
2023/06/28 10:45:34;;;;;;;22.13;16.25;;;17.50;99.90;;;;;;5013989;28;94600;-37
2023/06/28 10:48:00;;;;;;;19.55;16.02;;;17.60;99.90;;;;;;5014846;28;94268;-33
2023/06/28 10:50:26;;;;;;;18.63;16.10;;;17.50;99.90;;;;;;5013831;28;93998;-33
2023/06/28 10:52:54;;;;;;;21.15;14.60;;;17.50;99.90;;;;;;5015056;28;94641;-37
2023/06/28 10:55:21;;;;;;;18.58;14.70;;;17.60;99.90;;;;;;5001121;28;93673;-34
2023/06/28 10:58:06;;;;;;;19.90;17.33;;;17.60;99.90;;;;;;5015254;28;95227;-35
2023/06/28 11:00:41;;;;;;;19.17;16.05;;;17.50;99.90;;;;;;5014747;28;94564;-32
2023/06/28 11:03:07;;;;;;;20.70;16.00;;;17.50;99.90;;;;;;5014228;28;95539;-33
2023/06/28 11:05:45;;;;;;;21.38;16.33;;;17.60;99.90;;;;;;5012811;28;94081;-32
2023/06/28 11:08:16;;;;;;;22.40;15.88;;;17.60;99.90;;;;;;5013595;28;94196;-34
2023/06/28 11:10:42;;;;;;;21.13;17.58;;;17.50;99.90;;;;;;5014513;28;94459;-32
2023/06/28 11:13:12;;;;;;;19.80;16.25;;;17.50;99.90;;;;;;5013475;28;97577;-34
2023/06/28 11:15:44;;;;;;;21.95;15.55;;;17.60;99.90;;;;;;5013876;28;97127;-37
2023/06/28 11:18:12;;;;;;;25.52;18.10;;;17.50;99.90;;;;;;5014225;28;93449;-35
2023/06/28 11:20:52;;;;;;;21.60;15.07;;;17.50;99.90;;;;;;5014045;28;94630;-35
2023/06/28 11:23:37;;;;;;;19.17;16.58;;;17.50;99.90;;;;;;5004314;28;94653;-37
2023/06/28 11:26:04;;;;;;;20.77;16.42;;;17.50;99.90;;;;;;5013568;28;94130;-38
2023/06/28 11:28:31;;;;;;;20.15;16.50;;;17.50;99.90;;;;;;5014187;27;93489;-34
2023/06/28 11:31:12;;;;;;;24.95;16.55;;;17.50;99.90;;;;;;5013917;28;93836;-34
2023/06/28 11:33:40;;;;;;;23.80;16.73;;;17.60;99.90;;;;;;5014486;28;95079;-32
2023/06/28 11:36:07;;;;;;;20.38;15.07;;;17.60;99.90;;;;;;5012908;28;94345;-37
2023/06/28 11:38:35;;;;;;;22.57;16.13;;;17.60;99.90;;;;;;5013991;28;94816;-35
2023/06/28 11:41:00;;;;;;;20.42;15.70;;;17.60;99.90;;;;;;5013833;28;92863;-34
2023/06/28 11:43:26;;;;;;;23.10;17.08;;;17.70;99.90;;;;;;5013550;28;95437;-34
2023/06/28 11:45:52;;;;;;;21.00;18.25;;;17.70;99.90;;;;;;5013843;28;94407;-33
2023/06/28 11:48:20;;;;;;;17.58;14.48;;;17.70;99.90;;;;;;5013753;28;93838;-33
2023/06/28 11:50:58;;;;;;;25.33;17.13;;;17.80;99.90;;;;;;5012434;28;94532;-33
2023/06/28 11:53:25;;;;;;;17.88;15.63;;;17.80;99.90;;;;;;5013220;28;95320;-34
2023/06/28 11:55:55;;;;;;;20.42;16.52;;;17.80;99.90;;;;;;5013763;28;93715;-33
2023/06/28 11:58:35;;;;;;;18.83;14.70;;;17.80;99.90;;;;;;5013727;28;93976;-32
2023/06/28 12:01:03;;;;;;;17.95;15.35;;;17.90;99.90;;;;;;5012637;28;92902;-35
2023/06/28 12:03:30;;;;;;;19.27;15.48;;;17.90;99.90;;;;;;5013071;28;96059;-37
2023/06/28 12:05:56;;;;;;;20.30;14.75;;;17.90;99.90;;;;;;5014287;28;95915;-34
2023/06/28 12:08:22;;;;;;;18.83;14.73;;;17.80;99.90;;;;;;5013092;28;93425;-35
2023/06/28 12:10:48;;;;;;;20.48;16.23;;;17.90;99.90;;;;;;5013250;28;92566;-34
2023/06/28 12:13:21;;;;;;;16.77;13.43;;;18.00;99.90;;;;;;5012985;28;94776;-34
2023/06/28 12:15:46;;;;;;;17.27;14.40;;;17.90;99.90;;;;;;5013533;28;94783;-35
2023/06/28 12:18:12;;;;;;;19.63;15.38;;;17.90;99.90;;;;;;5013344;28;93901;-34
2023/06/28 12:20:38;;;;;;;20.88;15.52;;;18.00;99.90;;;;;;5013414;28;92410;-36
2023/06/28 12:23:11;;;;;;;16.85;15.05;;;18.00;99.90;;;;;;5013588;28;96322;-34
2023/06/28 12:25:41;;;;;;;18.10;15.45;;;18.00;99.90;;;;;;5012575;28;94595;-37
2023/06/28 12:28:08;;;;;;;19.40;14.50;;;18.00;99.90;;;;;;5012590;28;94259;-34
2023/06/28 12:30:35;;;;;;;19.70;14.47;;;18.00;99.90;;;;;;5011878;28;92940;-37
2023/06/28 12:33:06;;;;;;;17.98;14.60;;;18.10;99.90;;;;;;5009351;28;95239;-35
2023/06/28 12:35:32;;;;;;;19.38;14.20;;;18.10;99.90;;;;;;5007997;28;93717;-33
2023/06/28 12:38:01;;;;;;;20.40;13.63;;;18.20;99.90;;;;;;5024208;27;93495;-33
2023/06/28 12:40:28;;;;;;;16.73;15.02;;;18.30;99.90;;;;;;5020428;27;92682;-33